sensor_id;sensor_type;location;lat;lon;timestamp;pressure;altitude;pressure_sealevel;temperature;humidity
6530;BME280;3298;42.688;23.366;2023-03-01T00:00:12;51993.41;;;-145.06;98.64
6530;BME280;3298;42.688;23.366;2023-03-01T00:02:39;51983.16;;;-145.06;99.32
6530;BME280;3298;42.688;23.366;2023-03-01T00:05:06;51970.88;;;-145.06;98.38
6530;BME280;3298;42.688;23.366;2023-03-01T00:07:33;51970.88;;;-145.06;99.03
6530;BME280;3298;42.688;23.366;2023-03-01T00:10:01;51970.88;;;-145.06;99.10
6530;BME280;3298;42.688;23.366;2023-03-01T00:12:28;51979.06;;;-145.06;98.98
6530;BME280;3298;42.688;23.366;2023-03-01T00:14:55;51966.78;;;-145.06;98.09
6530;BME280;3298;42.688;23.366;2023-03-01T00:17:22;51983.16;;;-145.06;99.09
6530;BME280;3298;42.688;23.366;2023-03-01T00:19:49;51966.78;;;-145.06;99.83
6530;BME280;3298;42.688;23.366;2023-03-01T00:22:15;52003.63;;;-145.06;100.00
6530;BME280;3298;42.688;23.366;2023-03-01T00:24:42;51970.88;;;-145.06;100.00
6530;BME280;3298;42.688;23.366;2023-03-01T00:27:10;51966.78;;;-145.06;100.00
6530;BME280;3298;42.688;23.366;2023-03-01T00:29:37;51970.88;;;-145.06;100.00
6530;BME280;3298;42.688;23.366;2023-03-01T00:32:04;51962.69;;;-145.06;99.71
6530;BME280;3298;42.688;23.366;2023-03-01T00:34:31;51999.53;;;-145.06;100.00
6530;BME280;3298;42.688;23.366;2023-03-01T00:36:58;51962.69;;;-145.06;100.00
6530;BME280;3298;42.688;23.366;2023-03-01T00:39:31;51983.16;;;-145.06;100.00
6530;BME280;3298;42.688;23.366;2023-03-01T00:41:58;51974.97;;;-145.06;100.00
6530;BME280;3298;42.688;23.366;2023-03-01T00:44:26;51974.97;;;-145.06;100.00
6530;BME280;3298;42.688;23.366;2023-03-01T00:46:53;52003.63;;;-145.06;100.00
6530;BME280;3298;42.688;23.366;2023-03-01T00:49:20;51974.97;;;-145.06;100.00
6530;BME280;3298;42.688;23.366;2023-03-01T00:51:49;51999.53;;;-145.06;100.00
6530;BME280;3298;42.688;23.366;2023-03-01T00:54:16;52007.72;;;-145.06;100.00
6530;BME280;3298;42.688;23.366;2023-03-01T00:56:43;51999.53;;;-145.06;100.00
6530;BME280;3298;42.688;23.366;2023-03-01T00:59:09;51995.44;;;-145.06;100.00
6530;BME280;3298;42.688;23.366;2023-03-01T01:01:38;51995.44;;;-145.06;100.00
6530;BME280;3298;42.688;23.366;2023-03-01T01:04:06;51987.25;;;-145.06;100.00
6530;BME280;3298;42.688;23.366;2023-03-01T01:06:35;51999.53;;;-145.06;100.00
6530;BME280;3298;42.688;23.366;2023-03-01T01:09:03;51987.25;;;-145.06;100.00
6530;BME280;3298;42.688;23.366;2023-03-01T01:11:31;51993.41;;;-145.06;100.00
6530;BME280;3298;42.688;23.366;2023-03-01T01:13:58;51997.50;;;-145.06;100.00
6530;BME280;3298;42.688;23.366;2023-03-01T01:16:26;52005.69;;;-145.06;100.00
6530;BME280;3298;42.688;23.366;2023-03-01T01:18:55;51999.53;;;-145.06;100.00
6530;BME280;3298;42.688;23.366;2023-03-01T01:21:23;52007.72;;;-145.06;100.00
6530;BME280;3298;42.688;23.366;2023-03-01T01:23:50;51981.13;;;-145.06;100.00
6530;BME280;3298;42.688;23.366;2023-03-01T01:26:19;51962.69;;;-145.06;99.96
6530;BME280;3298;42.688;23.366;2023-03-01T01:28:47;51977.03;;;-145.06;99.00
6530;BME280;3298;42.688;23.366;2023-03-01T01:31:14;51962.69;;;-145.06;98.10
6530;BME280;3298;42.688;23.366;2023-03-01T01:33:41;51946.31;;;-145.06;97.14
6530;BME280;3298;42.688;23.366;2023-03-01T01:36:10;51985.22;;;-145.06;95.75
6530;BME280;3298;42.688;23.366;2023-03-01T01:38:38;51915.63;;;-145.06;94.44
6530;BME280;3298;42.688;23.366;2023-03-01T01:41:05;51970.88;;;-145.06;94.42
6530;BME280;3298;42.688;23.366;2023-03-01T01:43:35;51942.22;;;-145.06;94.30
6530;BME280;3298;42.688;23.366;2023-03-01T01:46:04;51911.53;;;-145.06;94.33
6530;BME280;3298;42.688;23.366;2023-03-01T01:48:38;51913.56;;;-145.06;93.64
6530;BME280;3298;42.688;23.366;2023-03-01T01:51:11;51909.47;;;-145.06;92.06
6530;BME280;3298;42.688;23.366;2023-03-01T01:53:39;51899.25;;;-145.06;90.86
6530;BME280;3298;42.688;23.366;2023-03-01T01:56:07;51897.19;;;-145.06;89.99
6530;BME280;3298;42.688;23.366;2023-03-01T01:58:35;51886.97;;;-145.06;89.48
6530;BME280;3298;42.688;23.366;2023-03-01T02:01:04;51911.53;;;-145.06;88.80
6530;BME280;3298;42.688;23.366;2023-03-01T02:03:32;51909.47;;;-145.06;87.38
6530;BME280;3298;42.688;23.366;2023-03-01T02:06:05;51876.75;;;-145.06;87.12
6530;BME280;3298;42.688;23.366;2023-03-01T02:08:38;51897.19;;;-145.06;86.81
6530;BME280;3298;42.688;23.366;2023-03-01T02:11:06;51870.59;;;-145.06;86.58
6530;BME280;3298;42.688;23.366;2023-03-01T02:13:33;51884.91;;;-145.06;86.16
6530;BME280;3298;42.688;23.366;2023-03-01T02:16:03;51862.41;;;-145.06;85.34
6530;BME280;3298;42.688;23.366;2023-03-01T02:18:32;51860.38;;;-145.06;86.10
6530;BME280;3298;42.688;23.366;2023-03-01T02:21:08;51872.66;;;-145.06;86.86
6530;BME280;3298;42.688;23.366;2023-03-01T02:23:41;51876.75;;;-145.06;86.68
6530;BME280;3298;42.688;23.366;2023-03-01T02:26:16;51876.75;;;-145.06;86.38
6530;BME280;3298;42.688;23.366;2023-03-01T02:28:46;51841.94;;;-145.06;86.89
6530;BME280;3298;42.688;23.366;2023-03-01T02:31:16;51893.09;;;-145.06;88.07
6530;BME280;3298;42.688;23.366;2023-03-01T02:34:02;51897.19;;;-145.06;89.14
6530;BME280;3298;42.688;23.366;2023-03-01T02:36:32;51866.50;;;-145.06;89.87
6530;BME280;3298;42.688;23.366;2023-03-01T02:39:03;51891.06;;;-145.06;90.81
6530;BME280;3298;42.688;23.366;2023-03-01T02:41:35;51909.47;;;-145.06;90.45
6530;BME280;3298;42.688;23.366;2023-03-01T02:44:04;51934.03;;;-145.06;91.72
6530;BME280;3298;42.688;23.366;2023-03-01T02:46:31;51891.06;;;-145.06;91.75
6530;BME280;3298;42.688;23.366;2023-03-01T02:48:58;51919.72;;;-145.06;92.10
6530;BME280;3298;42.688;23.366;2023-03-01T02:51:33;51901.28;;;-145.06;91.32
6530;BME280;3298;42.688;23.366;2023-03-01T02:54:08;51868.56;;;-145.06;91.85
6530;BME280;3298;42.688;23.366;2023-03-01T02:56:37;51901.28;;;-145.06;92.46
6530;BME280;3298;42.688;23.366;2023-03-01T02:59:05;51897.19;;;-145.06;92.07
6530;BME280;3298;42.688;23.366;2023-03-01T03:01:32;51915.63;;;-145.06;91.87
6530;BME280;3298;42.688;23.366;2023-03-01T03:04:04;51889.00;;;-145.06;92.30
6530;BME280;3298;42.688;23.366;2023-03-01T03:06:31;51974.97;;;-145.06;92.99
6530;BME280;3298;42.688;23.366;2023-03-01T03:08:58;51921.75;;;-145.06;92.06
6530;BME280;3298;42.688;23.366;2023-03-01T03:11:25;51911.53;;;-145.06;92.63
6530;BME280;3298;42.688;23.366;2023-03-01T03:13:51;52011.81;;;-145.06;92.63
6530;BME280;3298;42.688;23.366;2023-03-01T03:16:20;51899.25;;;-145.06;92.51
6530;BME280;3298;42.688;23.366;2023-03-01T03:18:47;51903.34;;;-145.06;92.96
6530;BME280;3298;42.688;23.366;2023-03-01T03:21:14;51913.56;;;-145.06;93.83
6530;BME280;3298;42.688;23.366;2023-03-01T03:23:42;51909.47;;;-145.06;94.10
6530;BME280;3298;42.688;23.366;2023-03-01T03:26:09;51889.00;;;-145.06;94.00
6530;BME280;3298;42.688;23.366;2023-03-01T03:28:39;51913.56;;;-145.06;93.90
6530;BME280;3298;42.688;23.366;2023-03-01T03:31:07;51917.66;;;-145.06;93.87
6530;BME280;3298;42.688;23.366;2023-03-01T03:33:35;51901.28;;;-145.06;94.15
6530;BME280;3298;42.688;23.366;2023-03-01T03:36:02;51899.25;;;-145.06;93.28
6530;BME280;3298;42.688;23.366;2023-03-01T03:38:29;51917.66;;;-145.06;93.22
6530;BME280;3298;42.688;23.366;2023-03-01T03:41:00;51897.19;;;-145.06;93.32
6530;BME280;3298;42.688;23.366;2023-03-01T03:43:28;51901.28;;;-145.06;93.72
6530;BME280;3298;42.688;23.366;2023-03-01T03:45:55;51913.56;;;-145.06;93.71
6530;BME280;3298;42.688;23.366;2023-03-01T03:48:23;51911.53;;;-145.06;92.28
6530;BME280;3298;42.688;23.366;2023-03-01T03:50:53;51909.47;;;-145.06;92.33
6530;BME280;3298;42.688;23.366;2023-03-01T03:53:22;51895.16;;;-145.06;91.74
6530;BME280;3298;42.688;23.366;2023-03-01T03:55:49;51905.38;;;-145.06;93.37
6530;BME280;3298;42.688;23.366;2023-03-01T03:58:17;51913.56;;;-145.06;93.41
6530;BME280;3298;42.688;23.366;2023-03-01T04:00:46;51884.91;;;-145.06;93.65
6530;BME280;3298;42.688;23.366;2023-03-01T04:03:14;51919.72;;;-145.06;93.08
6530;BME280;3298;42.688;23.366;2023-03-01T04:05:42;51884.91;;;-145.06;93.17
6530;BME280;3298;42.688;23.366;2023-03-01T04:08:10;51921.75;;;-145.06;93.68
6530;BME280;3298;42.688;23.366;2023-03-01T04:10:39;51917.66;;;-145.06;93.15
6530;BME280;3298;42.688;23.366;2023-03-01T04:13:09;51905.38;;;-145.06;92.84
6530;BME280;3298;42.688;23.366;2023-03-01T04:15:37;51909.47;;;-145.06;92.80
6530;BME280;3298;42.688;23.366;2023-03-01T04:18:05;51929.94;;;-145.06;93.41
6530;BME280;3298;42.688;23.366;2023-03-01T04:20:34;51925.84;;;-145.06;95.08
6530;BME280;3298;42.688;23.366;2023-03-01T04:23:04;51917.66;;;-145.06;94.63
6530;BME280;3298;42.688;23.366;2023-03-01T04:25:41;51917.66;;;-145.06;94.14
6530;BME280;3298;42.688;23.366;2023-03-01T04:28:08;51913.56;;;-145.06;93.96
6530;BME280;3298;42.688;23.366;2023-03-01T04:30:36;51905.38;;;-145.06;94.44
6530;BME280;3298;42.688;23.366;2023-03-01T04:33:04;51884.91;;;-145.06;93.40
6530;BME280;3298;42.688;23.366;2023-03-01T04:35:31;51893.09;;;-145.06;92.47
6530;BME280;3298;42.688;23.366;2023-03-01T04:37:59;51917.66;;;-145.06;93.63
6530;BME280;3298;42.688;23.366;2023-03-01T04:40:26;51905.38;;;-145.06;94.34
6530;BME280;3298;42.688;23.366;2023-03-01T04:42:55;51913.56;;;-145.06;94.75
6530;BME280;3298;42.688;23.366;2023-03-01T04:45:21;51901.28;;;-145.06;94.39
6530;BME280;3298;42.688;23.366;2023-03-01T04:47:48;51921.75;;;-145.06;94.29
6530;BME280;3298;42.688;23.366;2023-03-01T04:50:18;51905.38;;;-145.06;95.10
6530;BME280;3298;42.688;23.366;2023-03-01T04:52:46;51915.63;;;-145.06;95.24
6530;BME280;3298;42.688;23.366;2023-03-01T04:55:13;51932.00;;;-145.06;96.20
6530;BME280;3298;42.688;23.366;2023-03-01T04:57:41;51911.53;;;-145.06;95.69
6530;BME280;3298;42.688;23.366;2023-03-01T05:00:11;51938.13;;;-145.06;95.77
6530;BME280;3298;42.688;23.366;2023-03-01T05:02:50;51927.91;;;-145.06;96.70
6530;BME280;3298;42.688;23.366;2023-03-01T05:05:25;51944.28;;;-145.06;96.98
6530;BME280;3298;42.688;23.366;2023-03-01T05:07:54;51946.31;;;-145.06;95.67
6530;BME280;3298;42.688;23.366;2023-03-01T05:10:21;51905.38;;;-145.06;95.65
6530;BME280;3298;42.688;23.366;2023-03-01T05:12:48;51909.47;;;-145.06;96.34
6530;BME280;3298;42.688;23.366;2023-03-01T05:15:16;51940.19;;;-145.06;96.59
6530;BME280;3298;42.688;23.366;2023-03-01T05:17:43;51942.22;;;-145.06;97.44
6530;BME280;3298;42.688;23.366;2023-03-01T05:20:10;51944.28;;;-145.06;97.99
6530;BME280;3298;42.688;23.366;2023-03-01T05:22:37;51911.53;;;-145.06;97.92
6530;BME280;3298;42.688;23.366;2023-03-01T05:25:05;51921.75;;;-145.06;97.20
6530;BME280;3298;42.688;23.366;2023-03-01T05:27:32;51919.72;;;-145.06;96.38
6530;BME280;3298;42.688;23.366;2023-03-01T05:29:59;51936.09;;;-145.06;95.48
6530;BME280;3298;42.688;23.366;2023-03-01T05:32:40;51915.63;;;-145.06;96.11
6530;BME280;3298;42.688;23.366;2023-03-01T05:35:09;51929.94;;;-145.06;95.15
6530;BME280;3298;42.688;23.366;2023-03-01T05:37:39;51929.94;;;-145.06;94.85
6530;BME280;3298;42.688;23.366;2023-03-01T05:40:07;51921.75;;;-145.06;95.62
6530;BME280;3298;42.688;23.366;2023-03-01T05:42:42;51936.09;;;-145.06;95.42
6530;BME280;3298;42.688;23.366;2023-03-01T05:45:09;51954.50;;;-145.06;95.11
6530;BME280;3298;42.688;23.366;2023-03-01T05:47:39;51954.50;;;-145.06;94.68
6530;BME280;3298;42.688;23.366;2023-03-01T05:50:13;51921.75;;;-145.06;93.97
6530;BME280;3298;42.688;23.366;2023-03-01T05:52:44;51899.25;;;-145.06;93.91
6530;BME280;3298;42.688;23.366;2023-03-01T05:55:11;51925.84;;;-145.06;93.90
6530;BME280;3298;42.688;23.366;2023-03-01T05:57:38;51929.94;;;-145.06;94.24
6530;BME280;3298;42.688;23.366;2023-03-01T06:00:06;51942.22;;;-145.06;93.85
6530;BME280;3298;42.688;23.366;2023-03-01T06:02:32;51895.16;;;-145.06;94.25
6530;BME280;3298;42.688;23.366;2023-03-01T06:05:01;51917.66;;;-145.06;93.66
6530;BME280;3298;42.688;23.366;2023-03-01T06:07:27;51942.22;;;-145.06;94.31
6530;BME280;3298;42.688;23.366;2023-03-01T06:09:54;51925.84;;;-145.06;95.37
6530;BME280;3298;42.688;23.366;2023-03-01T06:12:21;51899.25;;;-145.06;94.97
6530;BME280;3298;42.688;23.366;2023-03-01T06:14:48;51954.50;;;-145.06;97.29
6530;BME280;3298;42.688;23.366;2023-03-01T06:17:14;51934.03;;;-145.06;98.68
6530;BME280;3298;42.688;23.366;2023-03-01T06:19:41;51958.59;;;-145.06;97.88
6530;BME280;3298;42.688;23.366;2023-03-01T06:22:09;51925.84;;;-145.06;97.71
6530;BME280;3298;42.688;23.366;2023-03-01T06:24:36;51940.19;;;-145.06;96.55
6530;BME280;3298;42.688;23.366;2023-03-01T06:27:03;51950.41;;;-145.06;95.04
6530;BME280;3298;42.688;23.366;2023-03-01T06:29:30;51919.72;;;-145.06;94.46
6530;BME280;3298;42.688;23.366;2023-03-01T06:31:57;51868.56;;;-145.06;94.16
6530;BME280;3298;42.688;23.366;2023-03-01T06:34:23;51932.00;;;-145.06;92.99
6530;BME280;3298;42.688;23.366;2023-03-01T06:36:50;51901.28;;;-145.06;92.20
6530;BME280;3298;42.688;23.366;2023-03-01T06:39:18;51903.34;;;-145.06;91.05
6530;BME280;3298;42.688;23.366;2023-03-01T06:41:45;51893.09;;;-145.06;91.57
6530;BME280;3298;42.688;23.366;2023-03-01T06:44:12;51895.16;;;-145.06;91.14
6530;BME280;3298;42.688;23.366;2023-03-01T06:46:39;51895.16;;;-145.06;90.01
6530;BME280;3298;42.688;23.366;2023-03-01T06:49:05;51895.16;;;-145.06;90.00
6530;BME280;3298;42.688;23.366;2023-03-01T06:51:35;51950.41;;;-145.06;91.21
6530;BME280;3298;42.688;23.366;2023-03-01T06:54:02;51884.91;;;-145.06;90.66
6530;BME280;3298;42.688;23.366;2023-03-01T06:56:30;51899.25;;;-145.06;89.53
6530;BME280;3298;42.688;23.366;2023-03-01T06:58:57;51884.91;;;-145.06;89.35
6530;BME280;3298;42.688;23.366;2023-03-01T07:01:24;51934.03;;;-145.06;90.79
6530;BME280;3298;42.688;23.366;2023-03-01T07:03:51;51913.56;;;-145.06;90.78
6530;BME280;3298;42.688;23.366;2023-03-01T07:06:18;51899.25;;;-145.06;91.03
6530;BME280;3298;42.688;23.366;2023-03-01T07:08:45;51889.00;;;-145.06;90.21
6530;BME280;3298;42.688;23.366;2023-03-01T07:11:11;51905.38;;;-145.06;91.54
6530;BME280;3298;42.688;23.366;2023-03-01T07:13:40;51874.69;;;-145.06;91.14
6530;BME280;3298;42.688;23.366;2023-03-01T07:16:07;51901.28;;;-145.06;89.24
6530;BME280;3298;42.688;23.366;2023-03-01T07:18:34;51909.47;;;-145.06;88.45
6530;BME280;3298;42.688;23.366;2023-03-01T07:21:04;51899.25;;;-145.06;88.41
6530;BME280;3298;42.688;23.366;2023-03-01T07:23:31;51856.28;;;-145.06;88.20
6530;BME280;3298;42.688;23.366;2023-03-01T07:25:57;51876.75;;;-145.06;87.23
6530;BME280;3298;42.688;23.366;2023-03-01T07:28:26;51880.81;;;-145.06;87.69
6530;BME280;3298;42.688;23.366;2023-03-01T07:30:54;51893.09;;;-145.06;86.93
6530;BME280;3298;42.688;23.366;2023-03-01T07:33:21;51856.28;;;-145.06;85.69
6530;BME280;3298;42.688;23.366;2023-03-01T07:35:47;51876.75;;;-145.06;85.12
6530;BME280;3298;42.688;23.366;2023-03-01T07:38:14;51858.31;;;-145.06;84.78
6530;BME280;3298;42.688;23.366;2023-03-01T07:40:41;51844.00;;;-145.06;83.05
6530;BME280;3298;42.688;23.366;2023-03-01T07:43:08;51866.50;;;-145.06;81.59
6530;BME280;3298;42.688;23.366;2023-03-01T07:45:34;51850.13;;;-145.06;80.59
6530;BME280;3298;42.688;23.366;2023-03-01T07:48:03;51827.63;;;-145.06;79.90
6530;BME280;3298;42.688;23.366;2023-03-01T07:50:30;51862.41;;;-145.06;78.92
6530;BME280;3298;42.688;23.366;2023-03-01T07:52:56;51823.53;;;-145.06;78.95
6530;BME280;3298;42.688;23.366;2023-03-01T07:55:23;51837.84;;;-145.06;79.13
6530;BME280;3298;42.688;23.366;2023-03-01T07:57:50;51837.84;;;-145.06;79.34
6530;BME280;3298;42.688;23.366;2023-03-01T08:00:17;51827.63;;;-145.06;79.73
6530;BME280;3298;42.688;23.366;2023-03-01T08:02:44;51856.28;;;-145.06;78.69
6530;BME280;3298;42.688;23.366;2023-03-01T08:05:12;51833.75;;;-145.06;78.67
6530;BME280;3298;42.688;23.366;2023-03-01T08:07:39;51841.94;;;-145.06;78.30
6530;BME280;3298;42.688;23.366;2023-03-01T08:10:06;51844.00;;;-145.06;77.55
6530;BME280;3298;42.688;23.366;2023-03-01T08:12:33;51817.38;;;-145.06;76.21
6530;BME280;3298;42.688;23.366;2023-03-01T08:15:00;51811.25;;;-145.06;76.62
6530;BME280;3298;42.688;23.366;2023-03-01T08:17:27;51835.81;;;-145.06;76.32
6530;BME280;3298;42.688;23.366;2023-03-01T08:19:54;51823.53;;;-145.06;76.34
6530;BME280;3298;42.688;23.366;2023-03-01T08:22:22;51796.91;;;-145.06;75.38
6530;BME280;3298;42.688;23.366;2023-03-01T08:24:49;51839.91;;;-145.06;75.86
6530;BME280;3298;42.688;23.366;2023-03-01T08:27:15;51815.34;;;-145.06;76.10
6530;BME280;3298;42.688;23.366;2023-03-01T08:29:43;51819.44;;;-145.06;75.76
6530;BME280;3298;42.688;23.366;2023-03-01T08:32:10;51801.00;;;-145.06;75.40
6530;BME280;3298;42.688;23.366;2023-03-01T08:34:36;51811.25;;;-145.06;74.89
6530;BME280;3298;42.688;23.366;2023-03-01T08:37:03;51815.34;;;-145.06;75.50
6530;BME280;3298;42.688;23.366;2023-03-01T08:39:31;51809.19;;;-145.06;75.01
6530;BME280;3298;42.688;23.366;2023-03-01T08:41:58;51837.84;;;-145.06;75.47
6530;BME280;3298;42.688;23.366;2023-03-01T08:44:25;51788.72;;;-145.06;73.45
6530;BME280;3298;42.688;23.366;2023-03-01T08:46:52;51813.28;;;-145.06;73.20
6530;BME280;3298;42.688;23.366;2023-03-01T08:49:21;51815.34;;;-145.06;72.04
6530;BME280;3298;42.688;23.366;2023-03-01T08:51:48;51811.25;;;-145.06;73.46
6530;BME280;3298;42.688;23.366;2023-03-01T08:54:16;51807.16;;;-145.06;72.90
6530;BME280;3298;42.688;23.366;2023-03-01T08:56:45;51827.63;;;-145.06;73.08
6530;BME280;3298;42.688;23.366;2023-03-01T08:59:16;51782.59;;;-145.06;71.37
6530;BME280;3298;42.688;23.366;2023-03-01T09:01:44;51796.91;;;-145.06;70.51
6530;BME280;3298;42.688;23.366;2023-03-01T09:04:11;51790.78;;;-145.06;69.62
6530;BME280;3298;42.688;23.366;2023-03-01T09:06:38;51809.19;;;-145.06;69.52
6530;BME280;3298;42.688;23.366;2023-03-01T09:09:05;51829.66;;;-145.06;69.13
6530;BME280;3298;42.688;23.366;2023-03-01T09:11:34;51803.06;;;-145.06;69.31
6530;BME280;3298;42.688;23.366;2023-03-01T09:14:05;51803.06;;;-145.06;69.18
6530;BME280;3298;42.688;23.366;2023-03-01T09:16:32;51807.16;;;-145.06;69.15
6530;BME280;3298;42.688;23.366;2023-03-01T09:19:02;51794.88;;;-145.06;70.18
6530;BME280;3298;42.688;23.366;2023-03-01T09:21:29;51815.34;;;-145.06;70.82
6530;BME280;3298;42.688;23.366;2023-03-01T09:23:57;51798.97;;;-145.06;71.70
6530;BME280;3298;42.688;23.366;2023-03-01T09:26:24;51803.06;;;-145.06;70.05
6530;BME280;3298;42.688;23.366;2023-03-01T09:28:53;51803.06;;;-145.06;69.25
6530;BME280;3298;42.688;23.366;2023-03-01T09:31:22;51807.16;;;-145.06;70.30
6530;BME280;3298;42.688;23.366;2023-03-01T09:33:50;51829.66;;;-145.06;69.46
6530;BME280;3298;42.688;23.366;2023-03-01T09:36:19;51790.78;;;-145.06;70.32
6530;BME280;3298;42.688;23.366;2023-03-01T09:38:46;51815.34;;;-145.06;72.10
6530;BME280;3298;42.688;23.366;2023-03-01T09:41:24;51831.72;;;-145.06;72.22
6530;BME280;3298;42.688;23.366;2023-03-01T09:44:00;51811.25;;;-145.06;71.92
6530;BME280;3298;42.688;23.366;2023-03-01T09:46:37;51827.63;;;-145.06;71.00
6530;BME280;3298;42.688;23.366;2023-03-01T09:49:11;51819.44;;;-145.06;69.98
6530;BME280;3298;42.688;23.366;2023-03-01T09:51:42;51782.59;;;-145.06;68.78
6530;BME280;3298;42.688;23.366;2023-03-01T09:54:10;51811.25;;;-145.06;69.47
6530;BME280;3298;42.688;23.366;2023-03-01T09:56:40;51784.63;;;-145.06;68.93
6530;BME280;3298;42.688;23.366;2023-03-01T09:59:17;51803.06;;;-145.06;68.86
6530;BME280;3298;42.688;23.366;2023-03-01T10:01:51;51794.88;;;-145.06;68.05
6530;BME280;3298;42.688;23.366;2023-03-01T10:04:28;51782.59;;;-145.06;66.25
6530;BME280;3298;42.688;23.366;2023-03-01T10:07:07;51788.72;;;-145.06;67.51
6530;BME280;3298;42.688;23.366;2023-03-01T10:09:40;51790.78;;;-145.06;69.08
6530;BME280;3298;42.688;23.366;2023-03-01T10:12:10;51807.16;;;-145.06;68.68
6530;BME280;3298;42.688;23.366;2023-03-01T10:14:44;51780.53;;;-145.06;68.99
6530;BME280;3298;42.688;23.366;2023-03-01T10:17:24;51782.59;;;-145.06;69.16
6530;BME280;3298;42.688;23.366;2023-03-01T10:19:52;51794.88;;;-145.06;69.02
6530;BME280;3298;42.688;23.366;2023-03-01T10:22:21;51807.16;;;-145.06;67.90
6530;BME280;3298;42.688;23.366;2023-03-01T10:24:48;51796.91;;;-145.06;68.45
6530;BME280;3298;42.688;23.366;2023-03-01T10:27:20;51796.91;;;-145.06;68.76
6530;BME280;3298;42.688;23.366;2023-03-01T10:29:54;51786.69;;;-145.06;68.82
6530;BME280;3298;42.688;23.366;2023-03-01T10:32:26;51809.19;;;-145.06;67.57
6530;BME280;3298;42.688;23.366;2023-03-01T10:34:53;51821.47;;;-145.06;67.59
6530;BME280;3298;42.688;23.366;2023-03-01T10:37:21;51809.19;;;-145.06;67.30
6530;BME280;3298;42.688;23.366;2023-03-01T10:40:02;51790.78;;;-145.06;66.85
6530;BME280;3298;42.688;23.366;2023-03-01T10:42:35;51788.72;;;-145.06;65.70
6530;BME280;3298;42.688;23.366;2023-03-01T10:48:11;51825.56;;;-145.06;66.41
6530;BME280;3298;42.688;23.366;2023-03-01T10:50:40;51782.59;;;-145.06;65.26
6530;BME280;3298;42.688;23.366;2023-03-01T10:53:23;51805.09;;;-145.06;64.79
6530;BME280;3298;42.688;23.366;2023-03-01T10:56:03;51801.00;;;-145.06;65.00
6530;BME280;3298;42.688;23.366;2023-03-01T10:58:31;51770.31;;;-145.06;64.61
6530;BME280;3298;42.688;23.366;2023-03-01T11:01:00;51794.88;;;-145.06;64.18
6530;BME280;3298;42.688;23.366;2023-03-01T11:03:30;51827.63;;;-145.06;63.19
6530;BME280;3298;42.688;23.366;2023-03-01T11:06:01;51772.34;;;-145.06;62.05
6530;BME280;3298;42.688;23.366;2023-03-01T11:08:33;51788.72;;;-145.06;62.06
6530;BME280;3298;42.688;23.366;2023-03-01T11:11:20;51801.00;;;-145.06;63.24
6530;BME280;3298;42.688;23.366;2023-03-01T11:13:55;51794.88;;;-145.06;63.27
6530;BME280;3298;42.688;23.366;2023-03-01T11:16:25;51803.06;;;-145.06;63.02
6530;BME280;3298;42.688;23.366;2023-03-01T11:19:15;51784.63;;;-145.06;63.95
6530;BME280;3298;42.688;23.366;2023-03-01T11:21:50;51811.25;;;-145.06;65.43
6530;BME280;3298;42.688;23.366;2023-03-01T11:24:19;51811.25;;;-145.06;65.33
6530;BME280;3298;42.688;23.366;2023-03-01T11:26:52;51811.25;;;-145.06;65.54
6530;BME280;3298;42.688;23.366;2023-03-01T11:29:26;51803.06;;;-145.06;66.35
6530;BME280;3298;42.688;23.366;2023-03-01T11:31:58;51811.25;;;-145.06;65.90
6530;BME280;3298;42.688;23.366;2023-03-01T11:34:37;51801.00;;;-145.06;66.17
6530;BME280;3298;42.688;23.366;2023-03-01T11:37:12;51803.06;;;-145.06;65.81
6530;BME280;3298;42.688;23.366;2023-03-01T11:39:47;51805.09;;;-145.06;66.04
6530;BME280;3298;42.688;23.366;2023-03-01T11:42:20;51801.00;;;-145.06;65.60
6530;BME280;3298;42.688;23.366;2023-03-01T11:44:52;51794.88;;;-145.06;65.10
6530;BME280;3298;42.688;23.366;2023-03-01T11:47:43;51786.69;;;-145.06;64.75
6530;BME280;3298;42.688;23.366;2023-03-01T11:50:20;51794.88;;;-145.06;64.55
6530;BME280;3298;42.688;23.366;2023-03-01T11:53:04;51786.69;;;-145.06;65.78
6530;BME280;3298;42.688;23.366;2023-03-01T11:55:50;51807.16;;;-145.06;66.49
6530;BME280;3298;42.688;23.366;2023-03-01T11:58:29;51798.97;;;-145.06;66.47
6530;BME280;3298;42.688;23.366;2023-03-01T12:01:28;51792.81;;;-145.06;65.53
6530;BME280;3298;42.688;23.366;2023-03-01T12:06:55;51803.06;;;-145.06;65.64
6530;BME280;3298;42.688;23.366;2023-03-01T12:09:34;51796.91;;;-145.06;65.69
6530;BME280;3298;42.688;23.366;2023-03-01T12:12:24;51817.38;;;-145.06;65.54
6530;BME280;3298;42.688;23.366;2023-03-01T12:15:20;51798.97;;;-145.06;65.15
6530;BME280;3298;42.688;23.366;2023-03-01T12:20:43;51796.91;;;-145.06;65.91
6530;BME280;3298;42.688;23.366;2023-03-01T12:23:46;51788.72;;;-145.06;65.97
6530;BME280;3298;42.688;23.366;2023-03-01T12:26:25;51819.44;;;-145.06;65.80
6530;BME280;3298;42.688;23.366;2023-03-01T12:29:10;51794.88;;;-145.06;65.57
6530;BME280;3298;42.688;23.366;2023-03-01T12:31:50;51815.34;;;-145.06;65.82
6530;BME280;3298;42.688;23.366;2023-03-01T12:34:35;51796.91;;;-145.06;64.76
6530;BME280;3298;42.688;23.366;2023-03-01T12:37:23;51815.34;;;-145.06;66.13
6530;BME280;3298;42.688;23.366;2023-03-01T12:40:10;51801.00;;;-145.06;65.71
6530;BME280;3298;42.688;23.366;2023-03-01T12:42:48;51778.50;;;-145.06;65.39
6530;BME280;3298;42.688;23.366;2023-03-01T12:45:54;51774.41;;;-145.06;66.32
6530;BME280;3298;42.688;23.366;2023-03-01T12:48:40;51798.97;;;-145.06;66.47
6530;BME280;3298;42.688;23.366;2023-03-01T12:51:13;51805.09;;;-145.06;65.73
6530;BME280;3298;42.688;23.366;2023-03-01T12:53:44;51782.59;;;-145.06;65.91
6530;BME280;3298;42.688;23.366;2023-03-01T12:56:15;51815.34;;;-145.06;67.13
6530;BME280;3298;42.688;23.366;2023-03-01T12:58:51;51807.16;;;-145.06;67.67
6530;BME280;3298;42.688;23.366;2023-03-01T13:01:31;51796.91;;;-145.06;66.75
6530;BME280;3298;42.688;23.366;2023-03-01T13:04:20;51782.59;;;-145.06;67.50
6530;BME280;3298;42.688;23.366;2023-03-01T13:07:02;51796.91;;;-145.06;67.73
6530;BME280;3298;42.688;23.366;2023-03-01T13:09:36;51790.78;;;-145.06;67.94
6530;BME280;3298;42.688;23.366;2023-03-01T13:15:25;51821.47;;;-145.06;69.02
6530;BME280;3298;42.688;23.366;2023-03-01T13:17:53;51803.06;;;-145.06;68.82